TimeCET,TemperatureF,Dew PointF,Humidity,Sea Level PressureIn,VisibilityMPH,Wind Direction,Wind SpeedMPH,Gust SpeedMPH,PrecipitationIn,Events,Conditions,WindDirDegrees,DateUTC
12:00 AM,58,51,69,30.12,,WNW,10.4,,,,,300,2014-01-14 23:00:00
12:00 AM,59.0,51.8,77,30.09,6.2,WNW,9.2,21.9,N/A,,Partly Cloudy,300,2014-01-14 23:00:00
12:30 AM,59.0,51.8,77,30.09,6.2,NW,11.5,-,N/A,,Partly Cloudy,310,2014-01-14 23:30:00
1:00 AM,60,51,65,30.11,9,WNW,10.4,,,,Scattered Clouds,300,2014-01-15 00:00:00
1:00 AM,59.0,51.8,77,30.09,6.2,WNW,9.2,-,N/A,,Partly Cloudy,300,2014-01-15 00:00:00
1:30 AM,59.0,51.8,77,30.09,6.2,NW,13.8,-,N/A,,Partly Cloudy,310,2014-01-15 00:30:00
2:00 AM,59,50,65,30.08,,WNW,17.3,,,,,300,2014-01-15 01:00:00
2:00 AM,59.0,51.8,77,30.06,6.2,WNW,16.1,-,N/A,,Partly Cloudy,300,2014-01-15 01:00:00
2:30 AM,57.2,50.0,77,30.09,-9999.0,WNW,8.1,-,N/A,,Clear,290,2014-01-15 01:30:00
3:00 AM,57,50,70,30.09,,WNW,11.5,,,,,300,2014-01-15 02:00:00
3:00 AM,57.2,50.0,77,30.06,-9999.0,WNW,11.5,-,N/A,,Clear,300,2014-01-15 02:00:00
3:30 AM,57.2,50.0,77,30.09,6.2,WNW,12.7,-,N/A,,Partly Cloudy,300,2014-01-15 02:30:00
4:00 AM,58,50,66,30.08,9,NW,15.0,,,,Scattered Clouds,310,2014-01-15 03:00:00
4:00 AM,57.2,50.0,77,30.06,6.2,NW,15.0,-,N/A,,Partly Cloudy,310,2014-01-15 03:00:00
4:30 AM,55.4,50.0,82,30.06,6.2,WNW,9.2,-,N/A,,Partly Cloudy,290,2014-01-15 03:30:00
5:00 AM,57,49,68,30.08,,WNW,15.0,,,,,300,2014-01-15 04:00:00
5:00 AM,57.2,50.0,77,30.06,6.2,WNW,16.1,27.6,N/A,,Partly Cloudy,300,2014-01-15 04:00:00
5:30 AM,57.2,50.0,77,30.06,6.2,WNW,15.0,-,N/A,,Partly Cloudy,290,2014-01-15 04:30:00
6:00 AM,57,49,67,30.07,,WNW,15.0,,,,,300,2014-01-15 05:00:00
6:00 AM,57.2,50.0,77,30.06,6.2,WNW,12.7,-,N/A,,Partly Cloudy,300,2014-01-15 05:00:00
6:30 AM,57.2,50.0,77,30.06,6.2,WNW,12.7,-,N/A,,Partly Cloudy,300,2014-01-15 05:30:00
7:00 AM,56,49,69,30.07,9,WNW,16.1,,,,Scattered Clouds,290,2014-01-15 06:00:00
7:00 AM,55.4,48.2,77,30.06,6.2,WNW,16.1,-,N/A,,Partly Cloudy,300,2014-01-15 06:00:00
7:30 AM,55.4,48.2,77,30.06,6.2,WNW,17.3,-,N/A,,Partly Cloudy,300,2014-01-15 06:30:00
8:00 AM,57,49,66,30.08,,WNW,13.8,,,,,290,2014-01-15 07:00:00
8:00 AM,57.2,50.0,77,30.06,6.2,WNW,12.7,-,N/A,,Partly Cloudy,300,2014-01-15 07:00:00
8:30 AM,57.2,50.0,77,30.06,6.2,WNW,17.3,-,N/A,,Partly Cloudy,300,2014-01-15 07:30:00
9:00 AM,57,49,65,30.10,,WNW,15.0,,,,,300,2014-01-15 08:00:00
9:00 AM,57.2,50.0,77,30.09,6.2,WNW,15.0,-,N/A,,Partly Cloudy,300,2014-01-15 08:00:00
9:30 AM,57.2,50.0,77,30.09,6.2,WNW,12.7,-,N/A,,Partly Cloudy,300,2014-01-15 08:30:00
10:00 AM,59,49,60,30.11,16,WNW,16.1,,,,Scattered Clouds,290,2014-01-15 09:00:00
10:00 AM,57.2,50.0,77,30.09,6.2,WNW,15.0,-,N/A,,Partly Cloudy,300,2014-01-15 09:00:00
10:30 AM,59.0,50.0,72,30.09,6.2,WNW,12.7,-,N/A,,Partly Cloudy,300,2014-01-15 09:30:00
11:00 AM,61,49,56,30.11,,WNW,15.0,,,,,290,2014-01-15 10:00:00
11:00 AM,59.0,50.0,72,30.09,6.2,WNW,15.0,-,N/A,,Partly Cloudy,290,2014-01-15 10:00:00
11:30 AM,60.8,50.0,68,30.09,6.2,WNW,11.5,-,N/A,,Partly Cloudy,300,2014-01-15 10:30:00
12:00 PM,64,49,48,30.10,,WNW,13.8,,,,,290,2014-01-15 11:00:00
12:00 PM,62.6,50.0,63,30.09,6.2,WNW,13.8,-,N/A,,Partly Cloudy,290,2014-01-15 11:00:00
12:30 PM,62.6,50.0,63,30.06,6.2,West,13.8,-,N/A,,Partly Cloudy,280,2014-01-15 11:30:00
1:00 PM,65,49,46,30.07,19,West,13.8,,,,Scattered Clouds,270,2014-01-15 12:00:00
1:00 PM,64.4,48.2,56,30.06,6.2,West,12.7,-,N/A,,Partly Cloudy,270,2014-01-15 12:00:00
1:30 PM,64.4,50.0,59,30.04,6.2,West,11.5,-,N/A,,Partly Cloudy,270,2014-01-15 12:30:00
2:00 PM,66,49,43,30.04,,West,11.5,,,,,260,2014-01-15 13:00:00
2:00 PM,64.4,50.0,59,30.04,6.2,West,10.4,-,N/A,,Partly Cloudy,260,2014-01-15 13:00:00
2:30 PM,66.2,50.0,56,30.04,6.2,West,10.4,-,N/A,,Partly Cloudy,260,2014-01-15 13:30:00
3:00 PM,67,48,40,30.03,,West,10.4,,,,,260,2014-01-15 14:00:00
3:00 PM,66.2,50.0,56,30.01,6.2,West,9.2,-,N/A,,Partly Cloudy,270,2014-01-15 14:00:00
3:30 PM,66.2,48.2,52,30.01,6.2,West,10.4,-,N/A,,Partly Cloudy,270,2014-01-15 14:30:00
4:00 PM,68,48,38,30.01,19,WNW,9.2,,,,Scattered Clouds,290,2014-01-15 15:00:00
4:00 PM,66.2,50.0,56,30.01,6.2,WNW,9.2,-,N/A,,Partly Cloudy,290,2014-01-15 15:00:00
4:30 PM,66.2,50.0,56,30.01,-9999.0,West,6.9,-,N/A,,Clear,280,2014-01-15 15:30:00
5:00 PM,68,49,40,30.01,,West,6.9,,,,,270,2014-01-15 16:00:00
5:00 PM,66.2,48.2,52,30.01,-9999.0,West,8.1,-,N/A,,Clear,280,2014-01-15 16:00:00
5:30 PM,66.2,50.0,56,30.01,6.2,West,3.5,-,N/A,,Partly Cloudy,260,2014-01-15 16:30:00
6:00 PM,65,49,46,30.01,,WSW,3.5,,,,,250,2014-01-15 17:00:00
6:00 PM,64.4,50.0,59,30.01,6.2,Variable,2.3,-,N/A,,Partly Cloudy,0,2014-01-15 17:00:00
6:30 PM,62.6,50.0,63,30.01,6.2,Variable,2.3,-,N/A,,Partly Cloudy,0,2014-01-15 17:30:00
7:00 PM,62,50,55,30.02,16,West,11.5,,,,Scattered Clouds,280,2014-01-15 18:00:00
7:00 PM,60.8,50.0,68,30.01,6.2,WNW,10.4,-,N/A,,Partly Cloudy,290,2014-01-15 18:00:00
7:30 PM,60.8,50.0,68,30.01,6.2,WNW,12.7,-,N/A,,Partly Cloudy,290,2014-01-15 18:30:00
8:00 PM,60,49,58,30.04,,WNW,12.7,,,,,290,2014-01-15 19:00:00
8:00 PM,59.0,50.0,72,30.04,6.2,WNW,12.7,-,N/A,,Partly Cloudy,290,2014-01-15 19:00:00
8:30 PM,57.2,50.0,77,30.04,6.2,WNW,10.4,-,N/A,,Partly Cloudy,300,2014-01-15 19:30:00
9:00 PM,58,50,66,30.04,,WNW,12.7,,,,,290,2014-01-15 20:00:00
9:00 PM,57.2,50.0,77,30.01,6.2,WNW,12.7,-,N/A,,Partly Cloudy,290,2014-01-15 20:00:00
9:30 PM,57.2,50.0,77,30.01,6.2,WNW,10.4,-,N/A,,Partly Cloudy,300,2014-01-15 20:30:00
10:00 PM,59,49,59,30.02,12,West,12.7,,,,Scattered Clouds,280,2014-01-15 21:00:00
10:00 PM,57.2,48.2,72,30.01,6.2,WNW,11.5,-,N/A,,Partly Cloudy,290,2014-01-15 21:00:00
10:30 PM,57.2,48.2,72,30.01,6.2,West,12.7,-,N/A,,Partly Cloudy,280,2014-01-15 21:30:00
11:00 PM,58,47,58,30.01,,West,11.5,,,,,280,2014-01-15 22:00:00
11:00 PM,57.2,46.4,67,30.01,-9999.0,West,11.5,-,N/A,,Clear,280,2014-01-15 22:00:00
11:30 PM,57.2,46.4,67,30.01,-9999.0,West,11.5,-,N/A,,Clear,280,2014-01-15 22:30:00